Time;durP1;ratioP1;P1;durP2;ratioP2;P2;SDS_P1;SDS_P2;PMS_P1;PMS_P2;Temp;Humidity;BMP_temperature;BMP_pressure;BME280_temperature;BME280_humidity;BME280_pressure;Samples;Min_cycle;Max_cycle;Signal;HPM_P1;HPM_P2
2023/05/21 00:01:38;;;;;;;2.90;1.50;;;;;;;14.74;68.78;102093.66;6062200;29;20229;-71
2023/05/21 00:04:58;;;;;;;1.77;1.67;;;;;;;14.57;69.26;102096.09;6059875;29;20292;-70
2023/05/21 00:08:20;;;;;;;2.47;1.53;;;;;;;14.65;69.40;102083.59;6062485;29;20647;-71
2023/05/21 00:11:41;;;;;;;2.67;1.43;;;;;;;14.67;69.61;102080.75;6062507;29;20240;-70
2023/05/21 00:15:02;;;;;;;2.27;1.83;;;;;;;14.73;69.29;102077.50;6061054;29;20344;-70
2023/05/21 00:18:24;;;;;;;1.60;1.23;;;;;;;14.71;69.02;102082.19;6053037;29;20234;-70
2023/05/21 00:21:45;;;;;;;2.47;1.60;;;;;;;14.71;69.37;102083.06;6068302;29;20241;-71
2023/05/21 00:25:09;;;;;;;2.43;1.63;;;;;;;14.67;69.54;102078.91;6050888;29;20241;-71
2023/05/21 00:28:29;;;;;;;3.20;1.87;;;;;;;14.68;69.33;102071.63;6058806;29;20234;-71
2023/05/21 00:31:51;;;;;;;11.37;1.50;;;;;;;14.58;69.43;102070.72;6051042;29;20232;-70
2023/05/21 00:35:12;;;;;;;1.80;1.70;;;;;;;14.71;69.16;102069.50;6061142;29;20345;-71
2023/05/21 00:38:33;;;;;;;2.73;1.20;;;;;;;14.55;69.12;102069.13;6057088;29;20774;-70
2023/05/21 00:41:56;;;;;;;1.63;1.30;;;;;;;14.64;69.37;102073.75;6081457;29;20245;-71
2023/05/21 00:45:17;;;;;;;2.07;1.87;;;;;;;14.63;69.08;102069.31;6058749;29;20320;-71
2023/05/21 00:48:38;;;;;;;4.57;1.50;;;;;;;14.54;69.48;102064.66;6048766;29;20233;-71
2023/05/21 00:52:00;;;;;;;2.57;2.37;;;;;;;14.56;69.74;102065.38;6071807;29;20327;-70
2023/05/21 00:55:21;;;;;;;2.97;1.30;;;;;;;14.62;69.30;102062.16;6053299;29;20225;-69
2023/05/21 00:58:43;;;;;;;2.50;2.13;;;;;;;14.45;69.48;102054.63;6055989;29;20229;-69
2023/05/21 01:02:05;;;;;;;4.93;1.43;;;;;;;14.54;69.92;102055.69;6065269;29;20241;-70
2023/05/21 01:05:27;;;;;;;1.50;1.40;;;;;;;14.47;69.86;102058.06;6065680;29;20233;-72
2023/05/21 01:08:49;;;;;;;3.07;1.00;;;;;;;14.45;69.83;102057.34;6051869;29;20225;-70
2023/05/21 01:12:12;;;;;;;2.90;1.40;;;;;;;14.51;69.76;102053.22;6068461;29;20832;-70
2023/05/21 01:15:36;;;;;;;1.33;1.10;;;;;;;14.47;69.87;102049.91;6054303;29;20264;-70
2023/05/21 01:18:58;;;;;;;5.27;2.37;;;;;;;14.35;70.13;102040.13;6046529;29;20261;-69
2023/05/21 01:22:21;;;;;;;3.87;2.10;;;;;;;14.23;70.34;102043.84;6054180;29;20268;-69
2023/05/21 01:25:44;;;;;;;2.60;1.93;;;;;;;14.36;70.53;102042.72;6038820;29;20241;-70
2023/05/21 01:29:06;;;;;;;2.93;2.73;;;;;;;14.31;70.67;102041.34;6042418;29;20237;-70
2023/05/21 01:32:34;;;;;;;3.57;1.53;;;;;;;14.29;70.67;102041.50;6050072;29;20241;-70
2023/05/21 01:36:04;;;;;;;4.30;1.93;;;;;;;14.26;70.61;102041.75;6045578;29;20237;-70
2023/05/21 01:39:29;;;;;;;3.37;2.43;;;;;;;14.23;70.75;102042.00;6064695;29;20249;-69
2023/05/21 01:42:53;;;;;;;2.27;1.30;;;;;;;14.19;71.20;102036.97;6081171;29;20249;-69
2023/05/21 01:46:17;;;;;;;2.13;2.00;;;;;;;14.13;71.37;102041.06;6067541;29;20245;-68
2023/05/21 01:49:38;;;;;;;1.70;1.37;;;;;;;14.15;71.34;102030.94;6057356;29;20321;-69
2023/05/21 01:52:59;;;;;;;1.97;1.87;;;;;;;14.27;71.33;102029.88;6064320;29;20268;-69
2023/05/21 01:56:24;;;;;;;1.77;1.00;;;;;;;14.28;71.20;102031.66;6067635;29;20810;-70
2023/05/21 01:59:46;;;;;;;2.27;1.10;;;;;;;14.29;71.06;102019.81;6053835;29;20612;-69
2023/05/21 02:03:08;;;;;;;3.20;1.70;;;;;;;14.29;71.23;102027.06;6040080;29;20296;-71
2023/05/21 02:06:30;;;;;;;5.73;1.70;;;;;;;14.14;71.37;102020.25;6060577;29;20312;-70
2023/05/21 02:09:51;;;;;;;4.57;2.07;;;;;;;14.25;71.50;102021.03;6057108;29;20226;-70
2023/05/21 02:13:12;;;;;;;1.87;1.60;;;;;;;14.33;71.36;102026.69;6060172;29;20238;-70
2023/05/21 02:16:34;;;;;;;3.07;2.07;;;;;;;14.23;71.65;102027.56;6051317;29;20233;-70
2023/05/21 02:19:55;;;;;;;1.70;1.40;;;;;;;14.27;71.35;102029.88;6041919;29;20237;-69
2023/05/21 02:23:16;;;;;;;3.73;2.10;;;;;;;14.14;71.55;102018.34;6055810;29;20685;-69
2023/05/21 02:26:37;;;;;;;3.13;2.33;;;;;;;14.08;71.85;102009.91;6065272;29;20245;-69
2023/05/21 02:29:58;;;;;;;2.57;2.27;;;;;;;14.08;72.05;102012.63;6054562;29;20236;-69
2023/05/21 02:33:20;;;;;;;3.63;1.90;;;;;;;14.04;72.23;102001.16;6060235;29;20627;-68
2023/05/21 02:36:41;;;;;;;2.13;1.93;;;;;;;14.04;72.19;101997.63;6065418;29;20234;-70
2023/05/21 02:40:04;;;;;;;1.43;1.23;;;;;;;13.95;72.64;102003.81;6059133;29;20260;-68
2023/05/21 02:43:26;;;;;;;1.20;1.10;;;;;;;13.91;72.88;101994.22;6038361;29;20332;-69
2023/05/21 02:46:47;;;;;;;2.33;1.07;;;;;;;13.81;73.16;101991.41;6068168;29;21942;-70
2023/05/21 02:50:13;;;;;;;1.20;1.10;;;;;;;13.86;73.35;101991.03;6051446;29;20233;-70
2023/05/21 02:53:53;;;;;;;1.73;1.50;;;;;;;13.87;73.52;101985.47;6056408;29;20619;-70
2023/05/21 02:57:14;;;;;;;1.60;1.50;;;;;;;13.86;73.94;101975.63;6064031;29;20318;-70
2023/05/21 03:00:35;;;;;;;3.70;1.53;;;;;;;13.90;73.81;101981.63;6040604;29;20233;-69
2023/05/21 03:03:56;;;;;;;1.20;1.20;;;;;;;13.94;73.68;101975.81;6054275;29;20545;-69
2023/05/21 03:07:18;;;;;;;3.47;1.33;;;;;;;13.84;74.15;101974.91;6060234;29;20241;-70
2023/05/21 03:10:40;;;;;;;1.53;1.40;;;;;;;13.86;73.96;101972.91;6064272;29;20229;-70
2023/05/21 03:14:00;;;;;;;1.17;1.03;;;;;;;13.75;74.32;101980.25;6069382;29;20538;-70
2023/05/21 03:17:21;;;;;;;2.40;1.67;;;;;;;13.79;74.60;101984.41;6060871;29;20320;-69
2023/05/21 03:20:44;;;;;;;6.50;1.57;;;;;;;13.84;74.56;101987.59;6056391;29;20241;-70
2023/05/21 03:24:06;;;;;;;1.77;1.10;;;;;;;13.81;74.72;101983.28;6060272;29;20624;-69
2023/05/21 03:27:27;;;;;;;2.87;2.30;;;;;;;13.79;74.73;101990.69;6047915;29;20609;-69
2023/05/21 03:30:49;;;;;;;4.27;1.47;;;;;;;13.82;74.94;101990.44;6043149;29;20234;-70
2023/05/21 03:34:33;;;;;;;1.37;1.27;;;;;;;13.88;75.18;101975.50;6053939;29;20237;-70
2023/05/21 03:37:54;;;;;;;2.80;1.53;;;;;;;13.81;75.35;101977.03;6066827;29;20324;-70
2023/05/21 03:41:16;;;;;;;1.37;1.27;;;;;;;13.91;75.22;101980.66;6054467;29;20233;-70
2023/05/21 03:44:41;;;;;;;5.23;1.53;;;;;;;13.82;75.20;101974.16;6049438;29;20245;-70
2023/05/21 03:48:28;;;;;;;1.50;1.40;;;;;;;13.88;75.23;101968.22;6059708;29;20237;-69
2023/05/21 03:51:49;;;;;;;1.67;1.27;;;;;;;13.95;75.26;101963.13;6056517;29;20237;-70
2023/05/21 03:55:12;;;;;;;2.33;2.13;;;;;;;13.97;75.19;101963.88;6062501;29;20350;-69
2023/05/21 03:58:34;;;;;;;3.77;2.00;;;;;;;13.98;75.32;101965.56;6055780;29;20242;-69
2023/05/21 04:01:55;;;;;;;2.37;1.57;;;;;;;14.08;75.16;101955.69;6067447;29;20558;-69
2023/05/21 04:05:16;;;;;;;2.63;2.27;;;;;;;14.21;75.16;101959.03;6060121;29;20245;-69
2023/05/21 04:08:37;;;;;;;2.43;1.47;;;;;;;14.33;75.10;101960.72;6055047;29;20233;-69
2023/05/21 04:11:58;;;;;;;3.07;1.80;;;;;;;14.30;74.70;101961.84;6055468;29;20252;-69
2023/05/21 04:15:20;;;;;;;5.20;2.20;;;;;;;14.46;74.55;101957.81;6048841;29;20233;-69
2023/05/21 04:18:41;;;;;;;3.70;1.97;;;;;;;14.50;74.15;101962.81;6038806;29;20230;-69
2023/05/21 04:22:02;;;;;;;2.57;2.37;;;;;;;14.38;74.45;101953.91;6047242;29;20237;-69
2023/05/21 04:25:24;;;;;;;2.33;1.73;;;;;;;14.61;74.27;101951.88;6058975;29;20237;-69
2023/05/21 04:28:46;;;;;;;2.60;1.53;;;;;;;14.47;74.22;101960.38;6053322;29;20286;-69
2023/05/21 04:32:10;;;;;;;2.10;1.73;;;;;;;14.58;74.47;101945.88;6052760;29;20237;-69
2023/05/21 04:35:31;;;;;;;3.33;2.10;;;;;;;14.75;73.90;101953.38;6041184;29;20237;-69
2023/05/21 04:38:52;;;;;;;2.17;1.63;;;;;;;14.91;73.59;101948.28;6056899;29;20248;-70
2023/05/21 04:42:13;;;;;;;4.07;2.30;;;;;;;14.99;73.50;101948.44;6062338;29;20264;-70
2023/05/21 04:45:35;;;;;;;4.30;1.80;;;;;;;15.03;73.50;101949.88;6040890;29;20233;-69
2023/05/21 04:49:01;;;;;;;1.83;1.73;;;;;;;15.08;73.38;101950.34;6050212;29;20240;-70
2023/05/21 04:52:23;;;;;;;3.50;2.00;;;;;;;15.14;72.88;101953.34;6062665;29;20225;-70
2023/05/21 04:55:45;;;;;;;2.43;1.47;;;;;;;15.28;72.68;101943.06;6059028;29;20248;-69
2023/05/21 04:59:07;;;;;;;3.10;2.13;;;;;;;15.28;72.59;101941.22;6044497;29;20237;-69
2023/05/21 05:02:28;;;;;;;2.93;2.17;;;;;;;15.13;73.30;101948.06;6050933;29;20336;-69
2023/05/21 05:05:50;;;;;;;2.33;1.43;;;;;;;15.27;73.00;101947.66;6042599;29;20236;-70
2023/05/21 05:09:11;;;;;;;2.97;1.73;;;;;;;15.23;73.42;101946.22;6041276;29;20233;-70
2023/05/21 05:12:31;;;;;;;2.87;1.83;;;;;;;15.22;73.23;101947.22;6069181;29;20241;-70
2023/05/21 05:15:53;;;;;;;2.33;2.13;;;;;;;15.30;73.30;101951.94;6063443;29;20237;-70
2023/05/21 05:19:14;;;;;;;2.40;2.20;;;;;;;15.35;72.91;101944.25;6054766;29;20249;-70
2023/05/21 05:22:36;;;;;;;3.33;1.77;;;;;;;15.40;73.29;101939.22;6066289;29;20265;-69
2023/05/21 05:25:57;;;;;;;3.43;1.80;;;;;;;15.50;73.17;101941.00;6061410;29;20233;-69
2023/05/21 05:29:18;;;;;;;6.77;1.90;;;;;;;15.44;73.30;101952.44;6048072;29;20312;-69
2023/05/21 05:32:39;;;;;;;2.57;2.27;;;;;;;15.63;73.00;101946.16;6061672;29;20236;-69
2023/05/21 05:36:00;;;;;;;2.07;1.90;;;;;;;15.55;73.32;101948.72;6054413;29;20253;-69
2023/05/21 05:39:22;;;;;;;4.03;3.10;;;;;;;15.66;72.81;101948.59;6060809;29;20236;-69
2023/05/21 05:42:43;;;;;;;3.53;2.43;;;;;;;15.80;73.12;101948.16;6049832;29;20917;-70
2023/05/21 05:46:09;;;;;;;2.87;2.57;;;;;;;16.02;72.60;101946.00;6054207;29;20228;-70
2023/05/21 05:49:29;;;;;;;5.57;2.03;;;;;;;15.96;72.32;101952.00;6047883;29;21019;-70
2023/05/21 05:52:51;;;;;;;2.23;2.03;;;;;;;16.19;71.66;101949.00;6061174;29;20256;-68
2023/05/21 05:56:13;;;;;;;3.67;1.93;;;;;;;16.44;71.42;101941.03;6084105;29;20602;-70
2023/05/21 05:59:35;;;;;;;4.20;3.47;;;;;;;16.63;70.90;101942.84;6045783;29;20236;-70
2023/05/21 06:02:56;;;;;;;6.23;2.83;;;;;;;16.56;70.87;101939.03;6046458;29;20229;-68
2023/05/21 06:06:17;;;;;;;4.47;2.73;;;;;;;16.45;70.70;101941.91;6065667;29;20261;-69
2023/05/21 06:09:38;;;;;;;3.83;2.93;;;;;;;16.54;70.86;101935.59;6044645;29;20237;-70
2023/05/21 06:13:00;;;;;;;3.43;2.37;;;;;;;16.76;70.33;101940.66;6038308;29;20622;-70
2023/05/21 06:16:21;;;;;;;3.53;2.30;;;;;;;17.08;70.01;101948.41;6053727;29;20627;-70
2023/05/21 06:19:44;;;;;;;2.40;2.17;;;;;;;17.09;69.92;101934.63;6034817;29;20233;-70
2023/05/21 06:23:06;;;;;;;2.17;2.07;;;;;;;17.29;69.51;101932.63;6065920;29;20618;-70
2023/05/21 06:26:27;;;;;;;3.20;2.87;;;;;;;17.64;68.75;101940.00;6046567;29;20245;-69
2023/05/21 06:29:50;;;;;;;4.40;4.00;;;;;;;17.72;68.65;101935.50;6049201;29;20237;-69
2023/05/21 06:33:11;;;;;;;3.60;3.23;;;;;;;17.96;68.05;101932.97;6060338;29;20245;-70
2023/05/21 06:36:32;;;;;;;3.17;2.97;;;;;;;17.83;68.17;101934.38;6054688;29;20399;-69
2023/05/21 06:39:52;;;;;;;5.73;2.70;;;;;;;17.65;68.76;101937.13;6061623;29;20230;-69
2023/05/21 06:43:13;;;;;;;6.70;4.57;;;;;;;17.91;68.54;101935.31;6048065;29;20240;-70
2023/05/21 06:47:05;;;;;;;3.87;2.77;;;;;;;18.16;68.15;101933.63;6073570;29;20237;-70
2023/05/21 06:50:26;;;;;;;2.97;2.63;;;;;;;18.35;67.60;101926.13;6056257;29;20233;-69
2023/05/21 06:53:47;;;;;;;2.07;1.87;;;;;;;18.30;67.58;101924.84;6063341;29;20233;-69
2023/05/21 06:57:08;;;;;;;4.40;2.97;;;;;;;18.30;67.81;101920.25;6066635;29;20296;-69
2023/05/21 07:00:30;;;;;;;4.73;3.27;;;;;;;18.51;67.75;101927.25;6058548;29;20750;-69
2023/05/21 07:03:53;;;;;;;3.83;3.53;;;;;;;18.76;67.25;101923.63;6079261;29;20424;-69
2023/05/21 07:07:14;;;;;;;3.23;3.03;;;;;;;18.75;67.12;101925.53;6059093;29;20683;-70
2023/05/21 07:10:35;;;;;;;4.18;3.00;;;;;;;18.66;67.26;101926.50;6045297;29;20509;-70
2023/05/21 07:13:59;;;;;;;5.53;4.97;;;;;;;18.50;67.82;101923.66;6060323;29;20237;-70
2023/05/21 07:17:20;;;;;;;4.43;3.57;;;;;;;18.70;67.96;101919.66;6060472;29;20236;-70
2023/05/21 07:20:42;;;;;;;6.70;4.17;;;;;;;19.15;67.30;101922.91;6053528;29;20257;-69
2023/05/21 07:24:06;;;;;;;4.50;3.80;;;;;;;19.21;66.72;101921.41;6057767;29;20233;-70
2023/05/21 07:27:31;;;;;;;3.85;2.90;;;;;;;19.03;67.22;101921.53;6059216;29;20241;-69
2023/05/21 07:30:53;;;;;;;5.17;4.67;;;;;;;19.00;67.34;101916.38;6054349;29;20241;-69
2023/05/21 07:34:21;;;;;;;3.28;2.58;;;;;;;19.38;66.71;101914.16;6057568;29;20234;-69
2023/05/21 07:37:45;;;;;;;8.30;4.75;;;;;;;19.47;66.83;101913.13;6053227;29;20612;-69
2023/05/21 07:41:06;;;;;;;4.45;3.90;;;;;;;19.63;66.45;101905.78;6071262;29;20320;-70
2023/05/21 07:44:27;;;;;;;5.35;4.28;;;;;;;19.40;66.54;101904.72;6055348;29;20234;-69
2023/05/21 07:47:48;;;;;;;5.60;4.05;;;;;;;19.44;66.56;101899.78;6055431;29;20514;-69
2023/05/21 07:51:08;;;;;;;3.97;3.63;;;;;;;19.58;66.61;101897.25;6061911;29;20246;-69
2023/05/21 07:54:31;;;;;;;6.15;4.93;;;;;;;20.00;66.46;101886.13;6054566;29;20236;-70
2023/05/21 07:57:52;;;;;;;5.05;4.53;;;;;;;20.48;65.41;101901.66;6064027;29;20224;-69
2023/05/21 08:01:22;;;;;;;4.57;3.88;;;;;;;20.41;65.18;101898.75;6059684;29;20233;-69
2023/05/21 08:04:43;;;;;;;4.97;4.47;;;;;;;20.79;64.24;101896.22;6060488;29;20237;-70
2023/05/21 08:08:05;;;;;;;5.72;5.22;;;;;;;20.50;64.55;101892.22;6049495;29;20625;-69
2023/05/21 08:11:29;;;;;;;5.88;5.25;;;;;;;20.52;65.12;101890.16;6062913;29;20229;-70
2023/05/21 08:14:50;;;;;;;4.72;4.03;;;;;;;20.83;64.19;101894.84;6054473;29;20339;-69
2023/05/21 08:18:11;;;;;;;4.97;4.53;;;;;;;21.02;64.17;101877.94;6054772;29;20313;-69
2023/05/21 08:21:32;;;;;;;7.65;5.53;;;;;;;21.06;63.68;101884.81;6059873;29;20234;-70
2023/05/21 08:24:55;;;;;;;4.95;4.25;;;;;;;21.24;63.52;101879.91;6044691;29;20349;-69
2023/05/21 08:28:17;;;;;;;6.25;4.80;;;;;;;21.54;63.26;101876.28;6057817;29;20249;-69
2023/05/21 08:31:39;;;;;;;8.35;4.47;;;;;;;21.49;62.84;101876.81;6053834;29;20237;-69
2023/05/21 08:34:59;;;;;;;5.88;5.25;;;;;;;21.43;62.94;101885.78;6060878;29;20232;-70
2023/05/21 08:38:36;;;;;;;5.15;4.68;;;;;;;21.37;63.03;101883.78;6062073;29;20237;-69
2023/05/21 08:42:15;;;;;;;5.45;4.75;;;;;;;21.51;62.90;101879.38;6059649;29;20236;-69
2023/05/21 08:45:41;;;;;;;4.78;4.30;;;;;;;21.53;62.79;101880.03;6045369;29;20303;-69
2023/05/21 08:49:03;;;;;;;5.47;4.22;;;;;;;21.77;62.73;101879.00;6049824;29;20336;-69
2023/05/21 08:52:26;;;;;;;6.13;5.53;;;;;;;21.58;63.28;101880.34;6068299;29;20225;-69
2023/05/21 08:55:49;;;;;;;7.53;6.75;;;;;;;21.56;63.19;101876.94;6042816;29;20225;-69
2023/05/21 08:59:10;;;;;;;6.18;5.68;;;;;;;21.77;63.20;101876.25;6054410;29;20268;-70
2023/05/21 09:02:37;;;;;;;6.10;5.47;;;;;;;22.04;62.59;101879.31;6055063;29;20245;-70
2023/05/21 09:05:59;;;;;;;6.47;5.88;;;;;;;21.73;63.19;101872.19;6056241;29;20260;-69
2023/05/21 09:09:32;;;;;;;6.65;5.47;;;;;;;22.20;62.62;101864.53;6044363;29;20571;-69
2023/05/21 09:12:53;;;;;;;7.43;5.22;;;;;;;22.42;62.24;101868.25;6043099;29;20225;-70
2023/05/21 09:16:14;;;;;;;6.25;5.50;;;;;;;22.66;61.62;101870.75;6041546;29;20225;-69
2023/05/21 09:19:38;;;;;;;6.32;5.53;;;;;;;22.54;61.74;101873.09;6055981;29;20537;-70
2023/05/21 09:23:03;;;;;;;7.18;5.00;;;;;;;22.64;61.53;101873.69;6045796;29;20623;-70
2023/05/21 09:26:25;;;;;;;5.38;4.97;;;;;;;22.56;62.06;101875.66;6063599;29;20233;-70
2023/05/21 09:29:49;;;;;;;6.30;5.57;;;;;;;22.45;62.08;101884.38;6043968;29;20229;-70
2023/05/21 09:33:10;;;;;;;5.70;5.30;;;;;;;22.76;62.27;101869.41;6046550;29;20337;-69
2023/05/21 09:36:37;;;;;;;7.05;6.40;;;;;;;22.95;61.62;101870.72;6052626;29;20702;-69
2023/05/21 09:39:58;;;;;;;9.15;6.38;;;;;;;23.24;61.30;101872.56;6044266;29;20234;-70
2023/05/21 09:43:21;;;;;;;6.07;5.35;;;;;;;23.33;61.11;101879.66;6042280;29;20257;-69
2023/05/21 09:46:42;;;;;;;6.03;5.50;;;;;;;23.48;60.48;101883.22;6063172;29;20854;-69
2023/05/21 09:50:03;;;;;;;5.90;5.32;;;;;;;23.43;60.61;101875.53;6041175;29;20245;-71
2023/05/21 09:53:25;;;;;;;7.38;6.57;;;;;;;23.28;60.46;101887.63;6060221;29;20819;-69
2023/05/21 09:56:46;;;;;;;5.63;5.22;;;;;;;23.63;60.41;101873.88;6064701;29;20774;-70
2023/05/21 10:00:09;;;;;;;7.20;6.57;;;;;;;23.74;59.72;101866.94;6054944;29;20768;-70
2023/05/21 10:03:38;;;;;;;7.30;6.55;;;;;;;24.20;59.41;101865.47;6054471;29;20412;-69
2023/05/21 10:07:01;;;;;;;6.70;5.50;;;;;;;24.20;59.40;101854.44;6065031;29;20269;-69
2023/05/21 10:10:23;;;;;;;7.13;6.43;;;;;;;24.25;59.38;101867.63;6058816;29;20485;-70
2023/05/21 10:13:48;;;;;;;6.93;5.72;;;;;;;23.99;59.32;101868.22;6050865;29;20230;-70
2023/05/21 10:17:11;;;;;;;9.15;8.23;;;;;;;23.61;59.90;101861.34;6062648;29;20232;-70
2023/05/21 10:20:33;;;;;;;8.43;7.70;;;;;;;23.83;60.46;101852.00;6046039;29;20902;-70
2023/05/21 10:23:56;;;;;;;8.57;6.20;;;;;;;24.05;59.89;101855.59;6066741;29;20233;-70
2023/05/21 10:27:19;;;;;;;6.15;5.47;;;;;;;24.22;59.94;101852.31;6066021;29;20565;-70
2023/05/21 10:30:41;;;;;;;7.95;7.25;;;;;;;24.40;59.62;101852.69;6059831;29;20236;-70
2023/05/21 10:34:04;;;;;;;6.68;6.00;;;;;;;24.86;58.11;101841.91;6056798;29;20800;-69
2023/05/21 10:37:26;;;;;;;8.30;6.50;;;;;;;24.88;58.07;101834.28;6061998;29;20237;-69
2023/05/21 10:40:48;;;;;;;9.25;7.28;;;;;;;25.03;58.48;101831.38;6059162;29;20225;-69
2023/05/21 10:44:21;;;;;;;6.43;5.93;;;;;;;25.44;57.62;101825.75;6060274;29;20233;-70
2023/05/21 10:48:07;;;;;;;6.70;6.05;;;;;;;25.70;57.25;101825.78;6069842;29;20245;-70
2023/05/21 10:51:39;;;;;;;8.55;7.72;;;;;;;25.81;56.82;101823.22;6066847;29;20229;-69
2023/05/21 10:55:11;;;;;;;7.80;6.90;;;;;;;25.70;56.84;101815.56;6051111;29;20248;-70
2023/05/21 10:59:00;;;;;;;7.72;7.03;;;;;;;26.09;56.29;101811.97;6054471;29;20264;-69
2023/05/21 11:02:26;;;;;;;8.75;6.05;;;;;;;26.38;56.27;101807.88;6067678;29;20550;-70
2023/05/21 11:05:54;;;;;;;7.03;6.20;;;;;;;26.23;55.88;101810.88;6048192;29;20233;-70
2023/05/21 11:09:16;;;;;;;5.88;5.25;;;;;;;26.20;55.47;101810.47;6040158;29;20233;-70
2023/05/21 11:13:07;;;;;;;6.28;5.68;;;;;;;26.71;55.17;101798.38;6064149;29;20233;-70
2023/05/21 11:16:28;;;;;;;5.53;4.80;;;;;;;27.18;54.33;101801.81;6069332;29;20233;-70
2023/05/21 11:19:50;;;;;;;5.60;5.10;;;;;;;26.89;54.69;101803.22;6046908;29;20329;-69
2023/05/21 11:23:13;;;;;;;6.38;5.78;;;;;;;27.18;53.88;101799.03;6064021;29;20828;-70
2023/05/21 11:27:01;;;;;;;6.53;5.43;;;;;;;27.10;53.98;101800.13;6072071;29;20278;-70
2023/05/21 11:30:22;;;;;;;7.85;4.60;;;;;;;27.59;53.44;101791.09;6055143;29;20369;-70
2023/05/21 11:33:42;;;;;;;6.03;4.60;;;;;;;28.09;52.17;101786.38;6058917;29;20225;-71
2023/05/21 11:37:27;;;;;;;4.60;4.18;;;;;;;28.27;52.01;101798.34;6074467;29;20244;-68
2023/05/21 11:40:50;;;;;;;6.13;4.72;;;;;;;27.99;51.94;101791.63;6057470;29;20229;-70
2023/05/21 11:44:11;;;;;;;6.13;3.75;;;;;;;27.83;52.02;101787.44;6060416;29;20237;-69
2023/05/21 11:47:32;;;;;;;6.00;4.55;;;;;;;27.36;52.26;101786.16;6071626;29;21569;-70
2023/05/21 11:50:54;;;;;;;5.32;4.93;;;;;;;27.58;52.45;101784.69;6046725;29;20838;-70
2023/05/21 11:54:16;;;;;;;5.28;4.70;;;;;;;28.14;51.95;101789.34;6057784;29;20745;-70
2023/05/21 11:57:40;;;;;;;5.32;4.82;;;;;;;27.49;52.27;101779.66;6065037;29;20264;-70
2023/05/21 12:01:02;;;;;;;6.60;5.60;;;;;;;28.05;52.13;101786.00;6071883;29;20229;-70
2023/05/21 12:04:23;;;;;;;5.78;5.18;;;;;;;28.53;50.98;101782.47;6043344;29;20229;-70
2023/05/21 12:07:47;;;;;;;6.60;4.38;;;;;;;28.67;50.75;101772.94;6059067;29;20249;-70
2023/05/21 12:11:12;;;;;;;5.28;4.78;;;;;;;28.36;51.28;101772.00;6072806;29;20236;-70
2023/05/21 12:14:34;;;;;;;5.78;4.63;;;;;;;28.78;51.01;101774.94;6047402;29;20321;-70
2023/05/21 12:17:56;;;;;;;6.60;4.32;;;;;;;28.85;50.73;101768.19;6061790;29;20603;-69
2023/05/21 12:21:17;;;;;;;6.10;5.20;;;;;;;28.98;50.19;101764.38;6052617;29;20305;-69
2023/05/21 12:24:42;;;;;;;5.88;5.32;;;;;;;28.67;50.88;101762.69;6060994;29;20313;-70
2023/05/21 12:28:05;;;;;;;4.72;4.32;;;;;;;29.06;50.23;101766.84;6059271;29;20240;-70
2023/05/21 12:31:26;;;;;;;6.20;5.70;;;;;;;28.40;51.20;101767.69;6054805;29;20233;-69
2023/05/21 12:34:48;;;;;;;6.50;6.00;;;;;;;28.47;51.36;101762.06;6064000;29;20229;-70
2023/05/21 12:38:09;;;;;;;5.90;5.40;;;;;;;28.73;50.99;101756.19;6059353;29;20237;-69
2023/05/21 12:41:31;;;;;;;6.95;5.20;;;;;;;28.32;51.17;101764.38;6058853;29;20380;-70
2023/05/21 12:44:53;;;;;;;5.07;4.65;;;;;;;28.42;51.18;101759.97;6046491;29;20238;-69
2023/05/21 12:48:15;;;;;;;6.40;5.82;;;;;;;28.07;52.29;101758.91;6056818;29;20596;-69
2023/05/21 12:51:39;;;;;;;5.93;4.82;;;;;;;28.01;52.75;101756.19;6066324;29;20268;-69
2023/05/21 12:55:00;;;;;;;4.05;3.65;;;;;;;27.95;52.88;101740.44;6035917;29;20238;-71
2023/05/21 12:58:22;;;;;;;5.65;5.13;;;;;;;27.98;53.08;101746.38;6059725;29;20603;-70
2023/05/21 13:01:49;;;;;;;7.65;5.00;;;;;;;27.92;52.86;101741.72;6069057;29;20611;-70
2023/05/21 13:05:15;;;;;;;5.80;5.13;;;;;;;26.97;54.78;101744.00;6046260;29;20522;-70
2023/05/21 13:08:36;;;;;;;5.90;5.10;;;;;;;27.57;54.21;101748.91;6049274;29;20766;-70
2023/05/21 13:11:56;;;;;;;8.48;7.05;;;;;;;27.45;53.85;101737.69;6063739;29;20519;-69
2023/05/21 13:15:17;;;;;;;6.50;5.93;;;;;;;27.41;53.80;101741.97;6052855;29;20261;-71
2023/05/21 13:18:39;;;;;;;7.45;5.25;;;;;;;27.68;53.36;101735.13;6059277;29;20233;-70
2023/05/21 13:22:00;;;;;;;10.95;6.13;;;;;;;27.74;53.36;101738.94;6068800;29;20241;-71
2023/05/21 13:25:23;;;;;;;10.35;8.63;;;;;;;27.94;52.77;101735.94;6041671;29;20233;-69
2023/05/21 13:28:44;;;;;;;7.45;6.75;;;;;;;27.94;52.87;101728.50;6028347;29;20245;-73
2023/05/21 13:32:06;;;;;;;9.93;8.93;;;;;;;28.01;53.10;101734.00;6069821;29;20252;-70
2023/05/21 13:35:29;;;;;;;7.50;6.80;;;;;;;28.08;53.22;101730.06;6044855;29;20221;-71
2023/05/21 13:38:50;;;;;;;8.85;6.20;;;;;;;28.11;52.86;101731.53;6056309;29;20229;-69
2023/05/21 13:42:11;;;;;;;5.82;5.22;;;;;;;27.80;53.51;101735.25;6066395;29;20233;-72
2023/05/21 13:45:32;;;;;;;6.20;5.60;;;;;;;27.58;53.77;101725.63;6059581;29;20517;-72
2023/05/21 13:48:53;;;;;;;8.52;6.82;;;;;;;27.65;53.83;101729.22;6050359;29;20240;-71
2023/05/21 13:52:15;;;;;;;6.65;5.63;;;;;;;27.41;54.17;101719.81;6043548;29;20260;-71
2023/05/21 13:55:36;;;;;;;7.25;6.45;;;;;;;27.57;53.56;101721.19;6038886;29;20245;-70
2023/05/21 13:58:57;;;;;;;9.23;6.22;;;;;;;27.72;53.40;101721.69;6036761;29;20241;-70
2023/05/21 14:02:18;;;;;;;5.75;5.15;;;;;;;27.81;53.01;101717.53;6061305;29;20230;-72
2023/05/21 14:05:39;;;;;;;5.68;5.18;;;;;;;27.60;53.11;101710.50;6046140;29;20237;-71
2023/05/21 14:09:01;;;;;;;5.40;4.78;;;;;;;27.94;53.14;101709.09;6046238;29;20579;-70
2023/05/21 14:12:22;;;;;;;4.50;4.10;;;;;;;28.01;52.78;101706.28;6062622;29;20233;-70
2023/05/21 14:15:44;;;;;;;6.97;6.35;;;;;;;27.99;52.59;101712.06;6049172;29;20509;-71
2023/05/21 14:19:05;;;;;;;7.20;6.50;;;;;;;27.88;52.76;101714.69;6060668;29;20245;-71
2023/05/21 14:22:25;;;;;;;5.05;4.65;;;;;;;27.11;53.67;101712.38;6066395;29;20245;-71
2023/05/21 14:25:47;;;;;;;5.38;4.88;;;;;;;27.19;53.64;101703.78;6053870;29;20236;-72
2023/05/21 14:29:09;;;;;;;5.13;4.72;;;;;;;27.25;53.46;101708.41;6054864;29;20556;-70
2023/05/21 14:32:30;;;;;;;5.50;4.75;;;;;;;27.57;52.98;101708.19;6063235;29;20237;-71
2023/05/21 14:35:51;;;;;;;5.78;4.65;;;;;;;27.47;53.53;101704.22;6056141;29;20229;-69
2023/05/21 14:39:12;;;;;;;5.63;4.22;;;;;;;27.38;53.02;101702.81;6037712;29;20616;-70
2023/05/21 14:42:34;;;;;;;5.80;5.13;;;;;;;26.86;54.14;101691.03;6062582;29;20787;-71
2023/05/21 14:45:55;;;;;;;5.10;4.63;;;;;;;26.83;54.35;101698.94;6042576;29;20244;-70
2023/05/21 14:49:16;;;;;;;6.45;5.28;;;;;;;26.77;54.36;101700.69;6062428;29;20499;-69
2023/05/21 14:52:36;;;;;;;5.47;4.28;;;;;;;26.65;54.74;101701.56;6068340;29;20321;-70
2023/05/21 14:55:57;;;;;;;5.53;5.07;;;;;;;26.73;54.12;101702.19;6065089;29;20328;-70
2023/05/21 14:59:19;;;;;;;5.90;5.20;;;;;;;26.65;54.04;101707.97;6057487;29;20236;-70
2023/05/21 15:02:40;;;;;;;5.97;4.47;;;;;;;26.53;54.49;101704.19;6064998;29;20265;-71
2023/05/21 15:06:01;;;;;;;4.22;3.83;;;;;;;26.54;54.86;101713.31;6056614;29;20248;-70
2023/05/21 15:09:22;;;;;;;6.38;5.28;;;;;;;26.47;54.62;101709.75;6045189;29;20313;-71
2023/05/21 15:12:43;;;;;;;7.38;4.70;;;;;;;26.40;55.22;101715.31;6065959;29;20229;-69
2023/05/21 15:16:05;;;;;;;6.53;4.75;;;;;;;26.44;54.54;101708.28;6055881;29;21233;-70
2023/05/21 15:19:26;;;;;;;7.72;4.47;;;;;;;26.56;55.02;101709.28;6047757;29;20315;-70
2023/05/21 15:22:47;;;;;;;6.63;5.05;;;;;;;26.75;54.91;101707.50;6055302;29;20241;-71
2023/05/21 15:26:08;;;;;;;7.68;5.25;;;;;;;26.55;55.07;101707.59;6066139;29;20229;-71
2023/05/21 15:29:29;;;;;;;7.18;6.07;;;;;;;26.90;54.61;101696.97;6061171;29;20233;-71
2023/05/21 15:32:51;;;;;;;4.90;4.50;;;;;;;26.65;54.81;101693.25;6068385;29;20328;-71
2023/05/21 15:36:12;;;;;;;6.28;5.50;;;;;;;26.43;54.93;101692.72;6066104;29;20233;-70
2023/05/21 15:39:33;;;;;;;6.38;5.47;;;;;;;26.13;55.87;101692.44;6044859;29;20580;-71
2023/05/21 15:42:54;;;;;;;6.90;4.25;;;;;;;26.45;55.59;101687.81;6061592;29;20261;-71